Latest Weather Observations for Wyndham Airport

IDW60801

Issued at 12:32 pm WST Wednesday 29 July 2015 (issued every 30 minutes, with the page automatically refreshed every 10 minutes)

About weather observations | Map of weather stations | Latest weather observations for WA | Other Formats
Station Details ID: 001006 Name: WYNDHAM AERO Lat: -15.51 Lon: 128.15 Height: 3.8 m
Data from the previous 72 hours. | See also: Recent months for locations in Western Australia
Date/Time
WST
Temp
°C
App
Temp
°C
Dew
Point
Rel
Hum
%
Delta-T
°C
Wind Press
QNH
hPa
Press
MSL
hPa
Rain
since 9 am
mm
Dir
 
Spd
km/h
Gust
km/h
Spd
kts
Gust
kts
29/12:30pm 31.3 25.9 2.5 16 14.4 ENE 20 30 11 16 1017.3 1017.3 0.0
29/12:00pm 29.8 24.4 1.3 16 13.9 SE 19 28 10 15 1018.0 1018.0 0.0
29/11:30am 29.7 24.1 1.2 16 13.9 ESE 20 32 11 17 1018.6 1018.6 0.0
29/11:00am 29.1 23.6 1.6 17 13.4 SE 20 28 11 15 1019.2 1019.2 0.0
29/10:30am 28.3 22.8 1.7 18 12.9 SE 20 28 11 15 1019.8 1019.8 0.0
29/10:00am 27.9 21.6 1.4 18 12.7 SE 24 35 13 19 1020.3 1020.3 0.0
29/09:30am 26.9 20.1 0.6 18 12.4 SE 26 35 14 19 1020.9 1020.9 0.0
29/09:00am 26.2 19.0 0.8 19 11.9 SE 28 35 15 19 1021.2 1021.2 0.0
29/08:30am 26.1 19.5 2.1 21 11.5 SE 26 35 14 19 1021.3 1021.3 0.0
29/08:00am 24.6 17.9 1.5 22 10.9 SE 26 35 14 19 1021.2 1021.2 0.0
29/07:30am 24.1 18.3 2.3 24 10.4 SE 22 30 12 16 1020.8 1020.8 0.0
29/07:00am 22.8 19.1 2.3 26 9.6 SE 11 15 6 8 1020.4 1020.4 0.0
29/06:30am 20.7 17.5 3.0 31 8.3 SE 9 15 5 8 1020.0 1020.0 0.0
29/06:00am 17.7 15.0 2.5 36 6.9 E 6 7 3 4 1019.8 1019.8 0.0
29/05:30am 17.6 14.3 2.4 36 6.9 ESE 9 11 5 6 1019.4 1019.4 0.0
29/05:00am 19.4 15.7 2.3 32 7.8 SE 11 13 6 7 1019.1 1019.1 0.0
29/04:30am 18.6 15.7 2.4 34 7.4 SE 7 9 4 5 1018.8 1018.8 0.0
29/04:00am 19.5 16.8 2.8 33 7.7 SE 6 7 3 4 1018.6 1018.6 0.0
29/03:30am 19.1 16.3 2.9 34 7.5 E 7 9 4 5 1018.4 1018.4 0.0
29/03:00am 20.2 17.4 3.0 32 8.1 ESE 7 9 4 5 1018.4 1018.4 0.0
29/02:30am 20.4 17.2 3.2 32 8.1 ESE 9 11 5 6 1018.4 1018.4 0.0
29/02:00am 19.4 16.6 3.2 34 7.6 SE 7 9 4 5 1018.6 1018.6 0.0
29/01:30am 19.4 16.5 2.7 33 7.7 SSE 7 9 4 5 1018.9 1018.9 0.0
29/01:00am 20.6 17.4 3.3 32 8.2 SSE 9 11 5 6 1019.1 1019.1 0.0
29/12:30am 19.6 17.4 3.3 34 7.7 SSE 4 9 2 5 1019.2 1019.2 0.0
29/12:00am 19.5 16.7 3.2 34 7.6 E 7 11 4 6 1019.2 1019.2 0.0
 
Date/Time
WST
Temp
°C
App
Temp
°C
Dew
Point
Rel
Hum
%
Delta-T
°C
Wind Press
QNH
hPa
Press
MSL
hPa
Rain
since 9 am
mm
Dir
 
Spd
km/h
Gust
km/h
Spd
kts
Gust
kts
28/11:30pm 21.1 16.5 3.8 32 8.3 SE 17 19 9 10 1019.2 1019.2 0.0
28/11:00pm 20.3 16.5 3.9 34 7.8 SE 13 15 7 8 1019.2 1019.2 0.0
28/10:30pm 19.9 16.5 4.0 35 7.6 SE 11 11 6 6 1019.2 1019.2 0.0
28/10:00pm 20.1 16.4 4.2 35 7.6 ESE 13 13 7 7 1019.3 1019.3 0.0
28/09:30pm 22.3 19.4 4.8 32 8.6 ESE 9 11 5 6 1019.4 1019.4 0.0
28/09:00pm 22.1 18.8 4.6 32 8.6 SE 11 13 6 7 1019.4 1019.4 0.0
28/08:30pm 21.9 18.1 4.0 31 8.7 SE 13 15 7 8 1019.3 1019.3 0.0
28/08:00pm 24.1 20.9 5.0 29 9.6 E 11 13 6 7 1019.1 1019.1 0.0
28/07:30pm 24.5 21.3 5.3 29 9.7 E 11 11 6 6 1018.9 1018.9 0.0
28/07:00pm 23.3 19.6 4.3 29 9.3 ESE 13 15 7 8 1018.5 1018.5 0.0
28/06:30pm 25.7 21.7 4.8 26 10.5 SE 15 19 8 10 1018.1 1018.1 0.0
28/06:00pm 27.7 23.0 5.3 24 11.5 SSE 19 26 10 14 1017.6 1017.6 0.0
28/05:30pm 27.9 23.7 5.5 24 11.6 SE 17 26 9 14 1017.3 1017.3 0.0
28/05:00pm 29.0 24.1 5.1 22 12.4 SE 20 28 11 15 1016.9 1016.9 0.0
28/04:30pm 29.9 24.3 5.2 21 12.9 SE 24 32 13 17 1016.7 1016.7 0.0
28/04:00pm 30.7 25.1 5.2 20 13.3 SSE 24 32 13 17 1016.5 1016.5 0.0
28/03:30pm 30.9 25.7 5.3 20 13.5 SE 22 35 12 19 1016.4 1016.4 0.0
28/03:00pm 30.9 25.3 5.3 20 13.4 SE 24 35 13 19 1016.4 1016.4 0.0
28/02:30pm 31.7 26.1 5.3 19 13.9 SE 24 35 13 19 1016.3 1016.3 0.0
28/02:00pm 31.6 26.3 5.2 19 13.9 SE 22 35 12 19 1016.6 1016.6 0.0
28/01:30pm 31.6 26.7 5.2 19 13.9 ESE 20 32 11 17 1016.9 1016.9 0.0
28/01:00pm 31.4 26.1 5.0 19 13.8 SE 22 33 12 18 1017.5 1017.5 0.0
28/12:30pm 30.4 25.5 4.9 20 13.3 SE 20 30 11 16 1018.0 1018.0 0.0
28/12:00pm 30.0 24.6 4.6 20 13.1 SE 22 33 12 18 1018.6 1018.6 0.0
28/11:30am 30.1 24.9 5.4 21 12.9 ESE 22 32 12 17 1019.3 1019.3 0.0
28/11:00am 29.5 23.0 4.9 21 12.7 ESE 28 39 15 21 1019.9 1019.9 0.0
28/10:30am 28.5 22.0 4.7 22 12.2 E 28 39 15 21 1020.4 1020.4 0.0
28/10:00am 27.6 21.5 4.6 23 11.7 ESE 26 35 14 19 1020.8 1020.8 0.0
28/09:30am 27.0 20.0 4.1 23 11.5 ESE 30 41 16 22 1021.2 1021.2 0.0
28/09:00am 26.8 19.5 4.6 24 11.2 ESE 32 41 17 22 1021.5 1021.5 0.0
28/08:30am 25.8 18.5 4.3 25 10.8 ESE 32 41 17 22 1021.4 1021.4 0.0
28/08:00am 25.3 17.3 3.9 25 10.6 SE 35 43 19 23 1021.4 1021.4 0.0
28/07:30am 24.8 17.2 4.0 26 10.3 SE 33 41 18 22 1021.1 1021.1 0.0
28/07:00am 24.2 19.2 4.6 28 9.7 SE 20 30 11 16 1020.9 1020.9 0.0
28/06:30am 23.7 17.9 4.6 29 9.5 ESE 24 32 13 17 1020.6 1020.6 0.0
28/06:00am 23.1 18.1 4.6 30 9.1 ESE 20 28 11 15 1019.9 1019.9 0.0
28/05:30am 23.4 17.3 4.9 30 9.2 ESE 26 32 14 17 1019.3 1019.3 0.0
28/05:00am 23.8 17.4 5.2 30 9.3 ESE 28 35 15 19 1018.8 1018.8 0.0
28/04:30am 23.7 18.0 5.1 30 9.3 E 24 30 13 16 1018.7 1018.7 0.0
28/04:00am 23.9 18.7 5.3 30 9.3 E 22 26 12 14 1018.5 1018.5 0.0
28/03:30am 24.5 19.0 5.8 30 9.5 E 24 33 13 18 1018.3 1018.3 0.0
28/03:00am 24.8 19.3 6.1 30 9.6 E 24 30 13 16 1018.3 1018.3 0.0
28/02:30am 24.6 20.0 6.4 31 9.4 E 20 26 11 14 1018.3 1018.3 0.0
28/02:00am 24.5 19.9 6.7 32 9.2 ESE 20 26 11 14 1018.3 1018.3 0.0
28/01:30am 24.9 19.9 6.6 31 9.5 ESE 22 28 12 15 1018.5 1018.5 0.0
28/01:00am 25.7 20.0 6.8 30 9.9 ESE 26 35 14 19 1018.5 1018.5 0.0
28/12:30am 25.7 20.5 7.3 31 9.7 ESE 24 30 13 16 1018.6 1018.6 0.0
28/12:00am 26.3 21.1 7.4 30 10.0 ESE 24 32 13 17 1018.6 1018.6 0.0
 
Date/Time
WST
Temp
°C
App
Temp
°C
Dew
Point
Rel
Hum
%
Delta-T
°C
Wind Press
QNH
hPa
Press
MSL
hPa
Rain
since 9 am
mm
Dir
 
Spd
km/h
Gust
km/h
Spd
kts
Gust
kts
27/11:30pm 26.4 21.7 7.9 31 9.9 ESE 22 28 12 15 1018.6 1018.6 0.0
27/11:00pm 27.1 23.0 8.0 30 10.3 ESE 19 26 10 14 1018.5 1018.5 0.0
27/10:30pm 26.8 22.5 7.8 30 10.2 ESE 20 24 11 13 1018.4 1018.4 0.0
27/10:00pm 26.1 22.3 7.7 31 9.8 ESE 17 20 9 11 1018.4 1018.4 0.0
27/09:30pm 25.6 22.2 7.7 32 9.5 ESE 15 17 8 9 1018.3 1018.3 0.0
27/09:00pm 25.5 22.9 7.6 32 9.5 ESE 11 15 6 8 1018.0 1018.0 0.0
27/08:30pm 25.5 22.7 7.1 31 9.7 SE 11 15 6 8 1017.8 1017.8 0.0
27/08:00pm 25.9 22.9 7.5 31 9.7 ESE 13 13 7 7 1017.7 1017.7 0.0
27/07:30pm 26.0 22.9 7.1 30 10.0 SE 13 15 7 8 1017.3 1017.3 0.0
27/07:00pm 26.6 23.5 7.1 29 10.3 SE 13 15 7 8 1017.0 1017.0 0.0
27/06:30pm 28.7 24.8 7.3 26 11.5 SE 17 20 9 11 1016.6 1016.6 0.0
27/06:00pm 31.0 26.8 7.5 23 12.8 ESE 19 24 10 13 1016.2 1016.2 0.0
27/05:30pm 31.7 26.9 7.4 22 13.3 E 22 26 12 14 1015.8 1015.8 0.0
27/05:00pm 32.5 27.5 8.0 22 13.6 E 24 32 13 17 1015.3 1015.3 0.0
27/04:30pm 33.5 27.8 8.2 21 14.1 ESE 28 35 15 19 1014.9 1014.9 0.0
27/04:00pm 34.3 29.3 8.1 20 14.7 ESE 24 30 13 16 1014.6 1014.6 0.0
27/03:30pm 34.6 28.9 8.4 20 14.8 ESE 28 37 15 20 1014.5 1014.5 0.0
27/03:00pm 35.2 31.2 8.9 20 15.0 ESE 20 30 11 16 1014.4 1014.4 0.0
27/02:30pm 35.1 29.9 8.8 20 14.9 ESE 26 35 14 19 1014.5 1014.5 0.0
27/02:00pm 35.8 32.1 10.1 21 14.9 ENE 20 33 11 18 1014.6 1014.6 0.0
27/01:30pm 35.2 30.2 10.9 23 14.3 ESE 28 39 15 21 1014.9 1014.9 0.0
27/01:00pm 35.3 31.1 11.0 23 14.3 ESE 24 35 13 19 1015.2 1015.2 0.0
27/12:30pm 35.5 31.3 11.2 23 14.3 ESE 24 37 13 20 1015.4 1015.4 0.0
27/12:00pm 35.6 32.2 11.3 23 14.3 E 20 41 11 22 1016.0 1016.0 0.0
27/11:30am 35.4 31.0 11.7 23 14.1 ESE 26 37 14 20 1016.6 1016.6 0.0
27/11:00am 34.2 29.1 10.7 24 13.7 ESE 28 39 15 21 1017.2 1017.2 0.0
27/10:30am 34.2 28.9 11.4 25 13.4 E 30 48 16 26 1017.6 1017.6 0.0
27/10:26am 34.0 28.9 11.8 26 13.1 E 30 48 16 26 1017.6 1017.6 0.0
27/10:00am 33.1 27.2 11.0 26 12.8 E 33 44 18 24 1018.2 1018.2 0.0
27/09:30am 32.8 27.5 11.3 27 12.6 E 30 44 16 24 1018.2 1018.2 0.0
27/09:00am 32.1 26.4 11.3 28 12.1 ESE 32 44 17 24 1018.6 1018.6 0.0
27/08:30am 31.5 25.3 11.3 29 11.7 ESE 35 50 19 27 1018.5 1018.5 0.0
27/08:00am 30.9 26.0 11.3 30 11.3 ESE 28 35 15 19 1018.4 1018.4 0.0
27/07:58am 31.0 26.1 11.4 30 11.4 ESE 28 35 15 19 1018.4 1018.4 0.0
27/07:30am 27.3 27.7 13.6 43 8.1 SSE 4 9 2 5 1018.3 1018.3 0.0
27/07:00am 23.4 24.4 13.3 53 5.8 CALM 0 0 0 0 1018.0 1018.0 0.0
27/06:30am 20.9 21.7 12.6 59 4.7 CALM 0 6 0 3 1017.7 1017.7 0.0
27/06:00am 19.5 18.8 12.0 62 4.2 E 7 11 4 6 1017.3 1017.3 0.0
27/05:30am 20.2 20.9 12.2 60 4.5 CALM 0 0 0 0 1017.0 1017.0 0.0
27/05:00am 20.6 21.6 13.1 62 4.3 CALM 0 0 0 0 1016.7 1016.7 0.0
27/04:30am 21.4 22.6 13.8 62 4.4 CALM 0 0 0 0 1016.6 1016.6 0.0
27/04:00am 20.5 20.9 11.4 56 5.0 CALM 0 0 0 0 1016.4 1016.4 0.0
27/03:30am 21.1 21.8 12.3 57 5.0 CALM 0 0 0 0 1016.3 1016.3 0.0
27/03:00am 21.3 21.9 11.9 55 5.3 CALM 0 0 0 0 1016.3 1016.3 0.0
27/02:30am 21.9 21.3 12.2 54 5.5 WNW 7 9 4 5 1016.4 1016.4 0.0
27/02:00am 22.3 21.3 13.4 57 5.1 NW 11 13 6 7 1016.5 1016.5 0.0
27/01:30am 22.0 21.9 13.4 58 5.0 NE 6 9 3 5 1016.6 1016.6 0.0
27/01:00am 22.0 22.0 12.5 54 5.4 S 4 11 2 6 1016.6 1016.6 0.0
27/12:30am 22.2 23.0 12.7 55 5.4 CALM 0 0 0 0 1016.7 1016.7 0.0
27/12:00am 23.2 23.3 13.9 56 5.4 ENE 6 7 3 4 1017.0 1017.0 0.0
 
Date/Time
WST
Temp
°C
App
Temp
°C
Dew
Point
Rel
Hum
%
Delta-T
°C
Wind Press
QNH
hPa
Press
MSL
hPa
Rain
since 9 am
mm
Dir
 
Spd
km/h
Gust
km/h
Spd
kts
Gust
kts
26/11:30pm 23.9 22.8 14.3 55 5.7 E 13 15 7 8 1017.1 1017.1 0.0
26/11:00pm 24.0 22.7 13.8 53 6.0 E 13 15 7 8 1017.2 1017.2 0.0
26/10:30pm 24.3 22.7 13.8 52 6.2 E 15 15 8 8 1017.2 1017.2 0.0
26/10:00pm 24.6 22.9 13.5 50 6.5 ESE 15 17 8 9 1017.2 1017.2 0.0
26/09:30pm 24.2 23.7 12.5 48 6.7 E 7 11 4 6 1017.2 1017.2 0.0
26/09:00pm 26.0 27.0 13.2 45 7.5 CALM 0 0 0 0 1017.3 1017.3 0.0
26/08:30pm 26.9 25.6 13.6 44 7.9 SSW 13 15 7 8 1017.1 1017.1 0.0
26/08:00pm 27.2 25.5 13.5 42 8.1 SSW 15 17 8 9 1017.0 1017.0 0.0
26/07:30pm 28.3 26.9 12.2 37 9.4 SW 11 13 6 7 1016.7 1016.7 0.0
26/07:00pm 29.9 29.1 12.8 35 10.1 NNW 9 15 5 8 1016.3 1016.3 0.0
26/06:30pm 30.6 28.3 13.0 34 10.5 N 17 22 9 12 1015.9 1015.9 0.0
26/06:00pm 30.9 28.1 13.2 34 10.6 N 20 30 11 16 1015.3 1015.3 0.0
26/05:30pm 31.1 27.6 13.4 34 10.6 N 24 33 13 18 1015.0 1015.0 0.0
26/05:00pm 31.7 28.1 13.0 32 11.2 N 24 33 13 18 1014.6 1014.6 0.0
26/04:30pm 33.1 29.0 12.7 29 12.2 N 26 35 14 19 1014.1 1014.1 0.0
26/04:00pm 33.8 29.9 13.3 29 12.4 N 26 35 14 19 1013.9 1013.9 0.0
26/03:30pm 34.9 32.1 12.5 25 13.4 NNE 19 26 10 14 1013.7 1013.7 0.0
26/03:00pm 34.7 32.2 11.2 24 13.8 ENE 15 26 8 14 1013.5 1013.5 0.0
26/02:30pm 35.1 32.2 10.9 23 14.2 ENE 17 28 9 15 1013.4 1013.4 0.0
26/02:00pm 35.4 32.9 11.1 23 14.3 ESE 15 22 8 12 1013.4 1013.4 0.0
26/01:30pm 35.7 32.5 11.4 23 14.4 ESE 19 26 10 14 1013.7 1013.7 0.0
26/01:00pm 35.3 32.0 11.0 23 14.3 ESE 19 46 10 25 1013.9 1013.9 0.0

Other Formats:

Comma delimited format used in spreadsheet applications
http://www.bom.gov.au/fwo/IDW60801/IDW60801.95214.axf

JavaScript Object Notation format (JSON) in row-major order
http://www.bom.gov.au/fwo/IDW60801/IDW60801.95214.json